createdAt,value
2022-08-14T00:01:10.046Z,4.18
2022-08-14T00:03:37.003Z,5.03
2022-08-14T00:06:25.268Z,3.45
2022-08-14T00:08:50.184Z,4.05
2022-08-14T00:11:17.742Z,4.38
2022-08-14T00:13:44.410Z,5.18
2022-08-14T00:16:40.849Z,2.45
2022-08-14T00:19:19.417Z,4.68
2022-08-14T00:21:47.191Z,4.20
2022-08-14T00:24:13.600Z,4.13
2022-08-14T00:26:50.026Z,5.70
2022-08-14T00:29:21.245Z,4.53
2022-08-14T00:31:56.327Z,5.22
2022-08-14T00:34:36.102Z,4.90
2022-08-14T00:37:09.459Z,5.10
2022-08-14T00:39:35.851Z,4.55
2022-08-14T00:42:02.987Z,5.28
2022-08-14T00:44:32.474Z,5.60
2022-08-14T00:47:00.872Z,4.72
2022-08-14T00:49:28.726Z,4.20
2022-08-14T00:51:56.771Z,3.63
2022-08-14T00:54:24.588Z,3.65
2022-08-14T00:56:55.316Z,5.10
2022-08-14T00:59:23.262Z,4.72
2022-08-14T01:01:51.327Z,4.53
2022-08-14T01:04:37.850Z,5.10
2022-08-14T01:07:08.149Z,4.60
2022-08-14T01:09:36.545Z,4.20
2022-08-14T01:12:04.043Z,3.58
2022-08-14T01:14:30.658Z,5.20
2022-08-14T01:16:57.372Z,3.75
2022-08-14T01:19:43.329Z,4.38
2022-08-14T01:22:12.503Z,4.25
2022-08-14T01:24:39.368Z,4.03
2022-08-14T01:27:07.210Z,4.32
2022-08-14T01:29:58.885Z,2.40
2022-08-14T01:32:24.523Z,4.88
2022-08-14T01:35:17.958Z,4.50
2022-08-14T01:37:44.514Z,5.28
2022-08-14T01:40:15.506Z,4.90
2022-08-14T01:42:46.423Z,5.07
2022-08-14T01:45:25.207Z,3.75
2022-08-14T01:47:52.029Z,5.18
2022-08-14T01:50:30.120Z,4.65
2022-08-14T01:52:59.112Z,5.07
2022-08-14T01:55:30.454Z,4.82
2022-08-14T01:58:01.690Z,3.58
2022-08-14T02:00:43.828Z,5.05
2022-08-14T02:03:15.987Z,4.18
2022-08-14T02:05:42.349Z,4.63
2022-08-14T02:08:10.438Z,2.92
2022-08-14T02:10:47.193Z,3.55
2022-08-14T02:13:14.100Z,4.85
2022-08-14T02:15:43.539Z,5.28
2022-08-14T02:18:10.231Z,3.70
2022-08-14T02:20:38.131Z,4.82
2022-08-14T02:23:04.485Z,3.10
2022-08-14T02:25:31.132Z,5.32
2022-08-14T02:28:23.107Z,5.07
2022-08-14T02:30:44.704Z,4.40
2022-08-14T02:33:11.880Z,4.88
2022-08-14T02:35:41.100Z,4.05
2022-08-14T02:38:07.757Z,5.50
2022-08-14T02:40:38.343Z,5.50
2022-08-14T02:43:07.919Z,4.40
2022-08-14T02:45:38.784Z,4.65
2022-08-14T02:49:03.797Z,3.95
2022-08-14T02:51:00.916Z,4.78
2022-08-14T02:53:27.965Z,3.47
2022-08-14T02:55:56.355Z,5.03
2022-08-14T02:58:30.844Z,4.03
2022-08-14T03:00:58.131Z,4.70
2022-08-14T03:03:25.206Z,4.40
2022-08-14T03:05:52.529Z,4.85
2022-08-14T03:08:21.148Z,3.92
2022-08-14T03:10:48.959Z,5.88
2022-08-14T03:13:19.419Z,5.10
2022-08-14T03:15:55.651Z,4.63
2022-08-14T03:18:31.923Z,5.80
2022-08-14T03:21:04.199Z,5.13
2022-08-14T03:23:36.359Z,4.65
2022-08-14T03:26:05.347Z,5.25
2022-08-14T03:28:33.091Z,4.43
2022-08-14T03:31:00.192Z,4.55
2022-08-14T03:33:27.859Z,4.63
2022-08-14T03:35:59.732Z,3.88
2022-08-14T03:39:12.518Z,5.03
2022-08-14T03:41:22.956Z,5.07
2022-08-14T03:43:56.964Z,5.63
2022-08-14T03:46:38.767Z,5.43
2022-08-14T03:49:16.336Z,6.38
2022-08-14T03:51:51.006Z,6.53
2022-08-14T03:54:20.689Z,4.78
2022-08-14T03:56:47.173Z,6.07
2022-08-14T03:59:17.999Z,6.32
2022-08-14T04:01:58.128Z,5.90
2022-08-14T04:04:28.541Z,6.22
2022-08-14T04:06:58.856Z,5.78
2022-08-14T04:09:26.986Z,5.75
2022-08-14T04:11:54.064Z,6.10
2022-08-14T04:14:22.661Z,5.57
2022-08-14T04:16:50.029Z,5.28
2022-08-14T04:19:19.366Z,5.57
2022-08-14T04:22:02.932Z,4.15
2022-08-14T04:24:31.000Z,6.53
2022-08-14T04:27:03.993Z,6.63
2022-08-14T04:29:30.508Z,6.10
2022-08-14T04:33:01.074Z,5.85
2022-08-14T04:34:51.967Z,5.97
2022-08-14T04:37:40.861Z,6.00
2022-08-14T04:40:27.787Z,3.60
2022-08-14T04:43:14.277Z,5.25
2022-08-14T04:45:43.515Z,6.53
2022-08-14T04:48:36.772Z,5.22
2022-08-14T04:51:01.765Z,4.68
2022-08-14T04:53:34.775Z,5.93
2022-08-14T04:56:02.806Z,3.20
2022-08-14T04:58:32.591Z,4.82
2022-08-14T05:00:59.662Z,5.18
2022-08-14T05:03:27.429Z,5.85
2022-08-14T05:05:55.953Z,6.28
2022-08-14T05:08:32.123Z,5.82
2022-08-14T05:11:11.979Z,5.93
2022-08-14T05:13:59.507Z,6.72
2022-08-14T05:16:29.269Z,6.68
2022-08-14T05:19:17.800Z,5.90
2022-08-14T05:21:56.397Z,4.50
2022-08-14T05:24:25.672Z,6.20
2022-08-14T05:26:52.058Z,6.60
2022-08-14T05:29:19.945Z,6.50
2022-08-14T05:31:47.112Z,4.38
2022-08-14T05:34:13.789Z,6.25
2022-08-14T05:36:42.542Z,7.07
2022-08-14T05:39:08.905Z,6.80
2022-08-14T05:41:52.936Z,6.72
2022-08-14T05:44:20.704Z,7.03
2022-08-14T05:46:47.044Z,6.97
2022-08-14T05:49:14.306Z,7.38
2022-08-14T05:51:41.201Z,7.30
2022-08-14T05:54:11.446Z,5.82
2022-08-14T05:56:40.121Z,6.55
2022-08-14T05:59:07.226Z,6.47
2022-08-14T06:01:34.047Z,6.28
2022-08-14T06:04:00.532Z,7.10
2022-08-14T06:06:26.884Z,7.10
2022-08-14T06:08:53.207Z,6.82
2022-08-14T06:11:27.902Z,6.35
2022-08-14T06:13:58.552Z,7.63
2022-08-14T06:16:24.917Z,4.93
2022-08-14T06:18:52.378Z,7.32
2022-08-14T06:21:19.948Z,5.55
2022-08-14T06:23:48.968Z,6.90
2022-08-14T06:26:15.782Z,7.75
2022-08-14T06:28:45.436Z,5.45
2022-08-14T06:31:12.100Z,7.85
2022-08-14T06:35:01.289Z,7.10
2022-08-14T06:36:24.873Z,8.27
2022-08-14T06:38:51.960Z,7.68
2022-08-14T06:41:20.599Z,6.00
2022-08-14T06:43:48.745Z,7.93
2022-08-14T06:46:32.615Z,5.13
2022-08-14T06:49:00.919Z,7.70
2022-08-14T06:51:38.882Z,7.78
2022-08-14T06:54:11.087Z,8.30
2022-08-14T06:56:38.332Z,8.07
2022-08-14T06:59:05.493Z,5.47
2022-08-14T07:01:51.295Z,7.63
2022-08-14T07:04:41.707Z,6.78
2022-08-14T07:07:08.059Z,5.53
2022-08-14T07:09:40.484Z,5.22
2022-08-14T07:12:54.755Z,6.75
2022-08-14T07:15:01.225Z,5.25
2022-08-14T07:17:27.916Z,4.15
2022-08-14T07:19:58.664Z,5.93
2022-08-14T07:22:25.598Z,6.57
2022-08-14T07:24:59.496Z,5.82
2022-08-14T07:27:26.576Z,4.97
2022-08-14T07:30:02.828Z,6.07
2022-08-14T07:32:34.117Z,6.30
2022-08-14T07:35:00.768Z,6.47
2022-08-14T07:37:27.165Z,6.25
2022-08-14T07:39:53.562Z,6.03
2022-08-14T07:42:22.589Z,5.45
2022-08-14T07:44:50.656Z,6.22
2022-08-14T07:47:17.573Z,5.80
2022-08-14T07:49:48.631Z,6.10
2022-08-14T07:52:30.209Z,5.75
2022-08-14T07:54:57.366Z,6.28
2022-08-14T07:57:24.835Z,4.97
2022-08-14T07:59:51.519Z,6.53
2022-08-14T08:02:19.222Z,6.13
2022-08-14T08:04:54.242Z,6.45
2022-08-14T08:07:22.147Z,5.85
2022-08-14T08:09:53.246Z,4.93
2022-08-14T08:12:20.572Z,6.30
2022-08-14T08:14:56.675Z,6.47
2022-08-14T08:17:34.662Z,4.20
2022-08-14T08:20:04.801Z,6.85
2022-08-14T08:22:32.518Z,7.57
2022-08-14T08:24:59.294Z,6.75
2022-08-14T08:27:27.094Z,6.20
2022-08-14T08:30:02.385Z,6.32
2022-08-14T08:32:29.835Z,6.07
2022-08-14T08:34:56.451Z,6.85
2022-08-14T08:37:30.492Z,5.20
2022-08-14T08:40:02.951Z,5.90
2022-08-14T08:42:40.710Z,5.20
2022-08-14T08:45:12.124Z,5.93
2022-08-14T08:47:39.757Z,5.57
2022-08-14T08:50:23.072Z,5.35
2022-08-14T08:52:58.508Z,5.03
2022-08-14T08:55:29.416Z,5.35
2022-08-14T08:57:57.069Z,6.75
2022-08-14T09:00:26.297Z,6.88
2022-08-14T09:03:03.151Z,5.82
2022-08-14T09:05:31.135Z,4.32
2022-08-14T09:08:30.799Z,4.25
2022-08-14T09:10:57.483Z,2.55
2022-08-14T09:13:26.820Z,4.85
2022-08-14T09:15:56.813Z,3.65
2022-08-14T09:18:23.485Z,3.53
2022-08-14T09:20:51.731Z,5.05
2022-08-14T09:23:21.176Z,5.05
2022-08-14T09:26:02.004Z,5.32
2022-08-14T09:28:31.536Z,5.20
2022-08-14T09:31:01.332Z,6.13
2022-08-14T09:34:04.355Z,5.53
2022-08-14T09:36:36.189Z,3.70
2022-08-14T09:39:07.552Z,4.07
2022-08-14T09:42:21.138Z,3.03
2022-08-14T09:44:49.715Z,4.80
2022-08-14T09:47:16.929Z,4.13
2022-08-14T09:49:43.927Z,4.90
2022-08-14T09:52:32.893Z,4.13
2022-08-14T09:55:01.025Z,4.03
2022-08-14T09:57:28.915Z,4.13
2022-08-14T09:59:56.035Z,4.18
2022-08-14T10:02:24.244Z,3.78
2022-08-14T10:05:01.588Z,3.80
2022-08-14T10:07:31.856Z,3.60
2022-08-14T10:10:01.826Z,4.07
2022-08-14T10:12:50.153Z,3.55
2022-08-14T10:15:21.264Z,3.35
2022-08-14T10:17:49.133Z,3.47
2022-08-14T10:20:40.216Z,3.22
2022-08-14T10:23:22.057Z,3.00
2022-08-14T10:26:08.908Z,3.70
2022-08-14T10:29:17.911Z,3.05
2022-08-14T10:31:29.752Z,3.50
2022-08-14T10:34:13.158Z,3.13
2022-08-14T10:36:41.246Z,3.25
2022-08-14T10:39:20.504Z,3.50
2022-08-14T10:41:53.724Z,3.60
2022-08-14T10:44:22.718Z,4.20
2022-08-14T10:47:40.563Z,3.08
2022-08-14T10:49:56.663Z,4.00
2022-08-14T10:52:24.336Z,4.03
2022-08-14T10:54:56.300Z,3.35
2022-08-14T10:57:25.152Z,2.88
2022-08-14T10:59:51.712Z,3.90
2022-08-14T11:02:44.932Z,3.67
2022-08-14T11:05:18.339Z,3.45
2022-08-14T11:07:50.881Z,4.10
2022-08-14T11:10:27.894Z,3.83
2022-08-14T11:12:57.739Z,4.35
2022-08-14T11:15:27.308Z,3.78
2022-08-14T11:17:55.879Z,4.18
2022-08-14T11:20:29.072Z,3.60
2022-08-14T11:22:59.142Z,3.28
2022-08-14T11:25:41.359Z,3.25
2022-08-14T11:28:17.173Z,3.63
2022-08-14T11:30:50.638Z,4.38
2022-08-14T11:33:24.374Z,4.25
2022-08-14T11:35:51.230Z,3.83
2022-08-14T11:38:20.064Z,4.13
2022-08-14T11:40:47.644Z,3.67
2022-08-14T11:43:14.895Z,3.72
2022-08-14T11:45:44.971Z,3.97
2022-08-14T11:49:03.015Z,3.92
2022-08-14T11:51:12.187Z,3.05
2022-08-14T11:53:42.275Z,3.25
2022-08-14T11:56:08.982Z,3.55
2022-08-14T11:58:38.120Z,3.28
2022-08-14T12:01:06.733Z,3.33
2022-08-14T12:03:46.514Z,2.47
2022-08-14T12:06:28.643Z,3.30
2022-08-14T12:09:08.804Z,2.75
2022-08-14T12:11:44.260Z,2.47
2022-08-14T12:14:30.798Z,1.90
2022-08-14T12:17:02.200Z,1.85
2022-08-14T12:19:29.008Z,2.20
2022-08-14T12:22:00.184Z,2.00
2022-08-14T12:24:36.098Z,2.40
2022-08-14T12:27:03.479Z,2.05
2022-08-14T12:29:29.820Z,1.85
2022-08-14T12:32:00.164Z,2.00
2022-08-14T12:34:34.315Z,1.98
2022-08-14T12:37:03.228Z,1.83
2022-08-14T12:39:29.686Z,1.70
2022-08-14T12:42:06.644Z,1.70
2022-08-14T12:44:37.382Z,1.50
2022-08-14T12:47:13.251Z,1.80
2022-08-14T12:49:48.068Z,1.88
2022-08-14T12:52:17.317Z,2.00
2022-08-14T12:55:01.621Z,2.03
2022-08-14T12:57:35.290Z,2.10
2022-08-14T13:00:22.453Z,1.70
2022-08-14T13:02:55.146Z,2.42
2022-08-14T13:05:28.224Z,2.15
2022-08-14T13:07:57.135Z,1.90
2022-08-14T13:10:51.219Z,2.03
2022-08-14T13:13:15.613Z,2.33
2022-08-14T13:15:46.509Z,2.00
2022-08-14T13:18:16.825Z,1.90
2022-08-14T13:20:49.411Z,2.35
2022-08-14T13:23:31.769Z,2.13
2022-08-14T13:25:58.844Z,2.30
2022-08-14T13:28:32.629Z,2.40
2022-08-14T13:31:00.626Z,2.30
2022-08-14T13:33:27.587Z,2.50
2022-08-14T13:35:54.336Z,2.30
2022-08-14T13:38:22.025Z,2.10
2022-08-14T13:40:54.321Z,2.13
2022-08-14T13:43:21.523Z,2.15
2022-08-14T13:46:00.301Z,2.78
2022-08-14T13:48:33.403Z,2.30
2022-08-14T13:53:33.332Z,2.70
2022-08-14T13:56:00.130Z,2.50
2022-08-14T13:58:33.893Z,2.25
2022-08-14T14:01:01.454Z,3.90
2022-08-14T14:03:30.370Z,2.95
2022-08-14T14:05:58.757Z,2.90
2022-08-14T14:08:46.748Z,2.85
2022-08-14T14:11:15.641Z,2.50
2022-08-14T14:13:45.097Z,2.83
2022-08-14T14:16:15.464Z,2.50
2022-08-14T14:18:49.345Z,2.92
2022-08-14T14:21:21.803Z,3.13
2022-08-14T14:23:48.874Z,3.25
2022-08-14T14:26:22.993Z,2.97
2022-08-14T14:28:54.756Z,3.10
2022-08-14T14:31:29.776Z,3.63
2022-08-14T14:33:58.404Z,2.40
2022-08-14T14:36:26.394Z,3.22
2022-08-14T14:38:57.779Z,3.10
2022-08-14T14:41:26.381Z,2.70
2022-08-14T14:43:54.213Z,3.80
2022-08-14T14:46:21.949Z,3.20
2022-08-14T14:49:04.106Z,2.80
2022-08-14T14:51:31.286Z,3.08
2022-08-14T14:53:57.894Z,3.35
2022-08-14T14:56:50.651Z,3.40
2022-08-14T14:59:12.820Z,3.00
2022-08-14T15:01:39.599Z,2.95
2022-08-14T15:04:20.874Z,3.63
2022-08-14T15:06:48.270Z,3.03
2022-08-14T15:09:18.011Z,3.00
2022-08-14T15:11:45.568Z,3.20
2022-08-14T15:14:56.865Z,3.10
2022-08-14T15:16:59.131Z,3.88
2022-08-14T15:19:26.724Z,3.38
2022-08-14T15:21:54.028Z,2.85
2022-08-14T15:24:26.794Z,3.40
2022-08-14T15:26:53.663Z,3.58
2022-08-14T15:29:20.024Z,3.78
2022-08-14T15:31:46.382Z,3.30
2022-08-14T15:34:46.168Z,3.10
2022-08-14T15:37:02.128Z,5.25
2022-08-14T15:39:34.048Z,3.67
2022-08-14T15:42:16.082Z,4.10
2022-08-14T15:44:57.331Z,3.13
2022-08-14T15:47:28.010Z,4.35
2022-08-14T15:49:56.831Z,3.05
2022-08-14T15:52:32.591Z,3.33
2022-08-14T15:55:07.511Z,3.15
2022-08-14T15:57:34.199Z,3.17
2022-08-14T16:00:40.126Z,3.58
2022-08-14T16:03:08.661Z,3.63
2022-08-14T16:05:38.469Z,2.90
2022-08-14T16:08:26.973Z,3.67
2022-08-14T16:10:54.959Z,3.67
2022-08-14T16:13:39.584Z,2.90
2022-08-14T16:16:34.861Z,3.20
2022-08-14T16:18:58.130Z,3.40
2022-08-14T16:21:29.593Z,2.75
2022-08-14T16:23:58.293Z,3.30
2022-08-14T16:29:15.517Z,3.17
2022-08-14T16:31:43.542Z,3.45
2022-08-14T16:34:45.452Z,3.08
2022-08-14T16:36:58.306Z,3.03
2022-08-14T16:39:24.974Z,3.13
2022-08-14T16:40:24.350Z,3.20
2022-08-14T16:41:52.282Z,3.40
2022-08-14T16:44:21.950Z,3.20
2022-08-14T16:47:01.812Z,3.55
2022-08-14T16:50:02.764Z,3.28
2022-08-14T16:52:25.484Z,3.15
2022-08-14T16:55:04.149Z,4.10
2022-08-14T16:57:32.439Z,3.83
2022-08-14T16:59:59.557Z,2.90
2022-08-14T17:02:34.316Z,3.33
2022-08-14T17:05:17.125Z,2.83
2022-08-14T17:08:32.310Z,3.13
2022-08-14T17:11:00.207Z,3.53
2022-08-14T17:13:58.556Z,3.13
2022-08-14T17:16:24.935Z,4.18
2022-08-14T17:19:00.238Z,3.67
2022-08-14T17:21:31.928Z,3.40
2022-08-14T17:24:57.342Z,3.08
2022-08-14T17:26:55.250Z,3.88
2022-08-14T17:29:22.045Z,3.05
2022-08-14T17:31:57.956Z,3.60
2022-08-14T17:34:26.114Z,5.07
2022-08-14T17:36:57.141Z,4.03
2022-08-14T17:39:28.063Z,4.25
2022-08-14T17:42:13.197Z,3.67
2022-08-14T17:44:44.970Z,3.83
2022-08-14T17:47:14.590Z,3.95
2022-08-14T17:49:45.239Z,3.83
2022-08-14T17:52:18.401Z,3.65
2022-08-14T17:54:47.506Z,3.90
2022-08-14T17:57:23.154Z,3.42
2022-08-14T17:59:50.139Z,4.10
2022-08-14T18:02:18.187Z,4.25
2022-08-14T18:04:46.694Z,3.95
2022-08-14T18:07:50.563Z,4.00
2022-08-14T18:10:52.009Z,4.53
2022-08-14T18:12:49.916Z,4.53
2022-08-14T18:15:19.277Z,4.63
2022-08-14T18:17:52.642Z,4.30
2022-08-14T18:21:41.869Z,4.85
2022-08-14T18:23:07.589Z,4.45
2022-08-14T18:25:47.145Z,4.38
2022-08-14T18:28:16.048Z,4.20
2022-08-14T18:30:58.280Z,4.18
2022-08-14T18:33:25.433Z,4.63
2022-08-14T18:35:58.198Z,3.95
2022-08-14T18:38:45.537Z,4.20
2022-08-14T18:41:25.087Z,4.32
2022-08-14T18:44:04.019Z,4.78
2022-08-14T18:46:59.926Z,3.80
2022-08-14T18:49:16.752Z,3.70
2022-08-14T18:51:45.785Z,4.28
2022-08-14T18:54:29.909Z,4.28
2022-08-14T18:57:00.987Z,3.50
2022-08-14T18:59:35.519Z,4.18
2022-08-14T19:02:21.278Z,3.40
2022-08-14T19:04:47.644Z,3.70
2022-08-14T19:07:16.178Z,3.40
2022-08-14T19:09:53.582Z,3.35
2022-08-14T19:12:44.517Z,4.05
2022-08-14T19:15:19.405Z,4.10
2022-08-14T19:18:14.919Z,3.50
2022-08-14T19:20:53.033Z,4.18
2022-08-14T19:23:21.586Z,3.35
2022-08-14T19:25:51.634Z,3.67
2022-08-14T19:28:31.152Z,3.92
2022-08-14T19:31:16.899Z,3.85
2022-08-14T19:33:48.377Z,4.18
2022-08-14T19:36:29.275Z,4.28
2022-08-14T19:39:02.015Z,4.30
2022-08-14T19:41:34.159Z,3.58
2022-08-14T19:44:10.293Z,4.30
2022-08-14T19:47:01.386Z,4.05
2022-08-14T19:50:07.914Z,4.03
2022-08-14T19:52:20.954Z,3.80
2022-08-14T19:54:47.913Z,4.93
2022-08-14T19:57:28.977Z,4.03
2022-08-14T20:00:04.412Z,3.65
2022-08-14T20:05:03.611Z,4.30
2022-08-14T20:07:59.565Z,4.60
2022-08-14T20:11:06.795Z,4.38
2022-08-14T20:13:32.448Z,4.35
2022-08-14T20:16:06.708Z,4.53
2022-08-14T20:18:50.075Z,4.60
2022-08-14T20:21:18.270Z,4.55
2022-08-14T20:23:48.215Z,4.18
2022-08-14T20:26:31.320Z,4.68
2022-08-14T20:28:59.263Z,4.32
2022-08-14T20:31:37.578Z,4.28
2022-08-14T20:34:06.364Z,5.20
2022-08-14T20:36:36.765Z,4.40
2022-08-14T20:39:07.465Z,4.30
2022-08-14T20:41:33.807Z,4.57
2022-08-14T20:44:35.427Z,4.93
2022-08-14T20:47:04.058Z,4.82
2022-08-14T20:49:36.323Z,5.03
2022-08-14T20:52:19.154Z,4.68
2022-08-14T20:54:50.693Z,4.93
2022-08-14T20:57:18.679Z,4.72
2022-08-14T20:59:57.335Z,4.90
2022-08-14T21:02:29.736Z,4.82
2022-08-14T21:05:04.567Z,4.72
2022-08-14T21:07:44.132Z,5.03
2022-08-14T21:10:33.782Z,4.65
2022-08-14T21:13:25.960Z,5.60
2022-08-14T21:15:56.608Z,4.90
2022-08-14T21:18:24.641Z,4.70
2022-08-14T21:20:55.440Z,4.85
2022-08-14T21:23:23.142Z,5.22
2022-08-14T21:25:49.510Z,4.68
2022-08-14T21:28:30.259Z,4.53
2022-08-14T21:31:01.281Z,5.85
2022-08-14T21:33:27.647Z,5.28
2022-08-14T21:35:56.594Z,5.65
2022-08-14T21:38:34.287Z,5.50
2022-08-14T21:41:01.781Z,5.95
2022-08-14T21:43:32.186Z,5.93
2022-08-14T21:45:59.291Z,5.75
2022-08-14T21:48:29.562Z,5.05
2022-08-14T21:51:02.151Z,5.78
2022-08-14T21:53:58.349Z,5.70
2022-08-14T21:56:31.497Z,5.47
2022-08-14T21:59:07.078Z,5.43
2022-08-14T22:02:01.975Z,6.07
2022-08-14T22:04:33.157Z,5.45
2022-08-14T22:07:05.507Z,5.57
2022-08-14T22:09:36.502Z,6.40
2022-08-14T22:12:07.000Z,5.97
2022-08-14T22:14:43.177Z,5.90
2022-08-14T22:17:12.993Z,6.43
2022-08-14T22:19:47.371Z,5.95
2022-08-14T22:22:22.158Z,5.97
2022-08-14T22:24:54.070Z,6.40
2022-08-14T22:27:27.289Z,6.53
2022-08-14T22:29:58.432Z,6.60
2022-08-14T22:32:35.224Z,6.55
2022-08-14T22:35:12.319Z,6.15
2022-08-14T22:37:39.588Z,7.13
2022-08-14T22:40:48.449Z,6.03
2022-08-14T22:43:00.612Z,6.82
2022-08-14T22:45:36.482Z,6.63
2022-08-14T22:48:05.061Z,6.85
2022-08-14T22:50:38.381Z,7.30
2022-08-14T22:53:15.642Z,6.82
2022-08-14T22:55:43.028Z,6.68
2022-08-14T22:58:09.395Z,7.30
2022-08-14T23:00:36.263Z,7.15
2022-08-14T23:03:04.122Z,6.55
2022-08-14T23:05:39.568Z,7.25
2022-08-14T23:08:58.889Z,8.15
2022-08-14T23:10:54.476Z,7.47
2022-08-14T23:13:21.087Z,7.68
2022-08-14T23:15:47.436Z,7.43
2022-08-14T23:18:13.838Z,7.88
2022-08-14T23:20:42.355Z,7.78
2022-08-14T23:23:22.840Z,7.95
2022-08-14T23:25:59.557Z,7.90
2022-08-14T23:28:34.641Z,8.50
2022-08-14T23:31:34.266Z,8.65
2022-08-14T23:34:02.447Z,8.23
2022-08-14T23:36:37.208Z,9.00
2022-08-14T23:39:10.241Z,8.77
2022-08-14T23:41:46.848Z,9.05
2022-08-14T23:44:20.598Z,8.68
2022-08-14T23:46:49.242Z,9.15
2022-08-14T23:49:16.784Z,9.52
2022-08-14T23:51:43.123Z,9.23
2022-08-14T23:54:48.306Z,9.73
2022-08-14T23:57:00.241Z,10.05
2022-08-14T23:59:30.501Z,9.38
